createdAt,value
2018-07-10T00:00:10.510Z,65.594482
2018-07-10T00:01:15.916Z,65.795898
2018-07-10T00:02:21.340Z,66.003418
2018-07-10T00:03:26.735Z,66.101074
2018-07-10T00:04:32.140Z,66.204834
2018-07-10T00:05:38.533Z,66.711426
2018-07-10T00:06:43.954Z,67.248535
2018-07-10T00:07:49.361Z,67.346191
2018-07-10T00:08:54.770Z,67.449951
2018-07-10T00:10:00.170Z,67.449951
2018-07-10T00:11:05.571Z,67.449951
2018-07-10T00:12:10.991Z,67.449951
2018-07-10T00:13:16.388Z,67.449951
2018-07-10T00:14:21.792Z,67.449951
2018-07-10T00:15:28.190Z,67.553711
2018-07-10T00:16:33.617Z,67.651367
2018-07-10T00:17:39.029Z,67.755127
2018-07-10T00:18:45.422Z,67.852783
2018-07-10T00:19:50.823Z,68.060303
2018-07-10T00:20:56.233Z,68.157959
2018-07-10T00:22:01.669Z,68.157959
2018-07-10T00:23:07.086Z,68.157959
2018-07-10T00:24:12.491Z,68.261719
2018-07-10T00:25:17.894Z,68.359375
2018-07-10T00:26:23.304Z,68.359375
2018-07-10T00:27:28.720Z,68.463135
2018-07-10T00:28:34.125Z,68.463135
2018-07-10T00:29:39.533Z,68.560791
2018-07-10T00:30:44.936Z,68.664551
2018-07-10T00:31:50.338Z,68.768311
2018-07-10T00:32:55.752Z,68.865967
2018-07-10T00:34:01.155Z,68.969727
2018-07-10T00:35:06.556Z,69.067383
2018-07-10T00:36:11.975Z,69.104004
2018-07-10T00:37:17.392Z,69.30542
2018-07-10T00:38:22.796Z,69.40918
2018-07-10T00:39:28.205Z,69.506836
2018-07-10T00:40:33.605Z,69.506836
2018-07-10T00:41:39.019Z,69.506836
2018-07-10T00:42:44.432Z,69.506836
2018-07-10T00:43:49.841Z,69.506836
2018-07-10T00:44:57.222Z,69.610596
2018-07-10T00:46:02.637Z,69.610596
2018-07-10T00:47:09.029Z,69.708252
2018-07-10T00:48:14.444Z,69.708252
2018-07-10T00:49:19.846Z,69.812012
2018-07-10T00:50:25.248Z,69.812012
2018-07-10T00:51:30.651Z,69.812012
2018-07-10T00:52:36.067Z,69.812012
2018-07-10T00:53:41.477Z,69.812012
2018-07-10T00:54:46.881Z,69.812012
2018-07-10T00:55:52.284Z,69.812012
2018-07-10T00:56:58.679Z,69.708252
2018-07-10T00:58:04.092Z,69.610596
2018-07-10T00:59:09.502Z,69.610596
2018-07-10T01:00:14.906Z,69.610596
2018-07-10T01:01:20.320Z,69.476318
2018-07-10T01:02:25.732Z,69.372559
2018-07-10T01:03:31.142Z,69.476318
2018-07-10T01:04:36.544Z,69.372559
2018-07-10T01:05:41.951Z,69.372559
2018-07-10T01:06:47.359Z,69.274902
2018-07-10T01:07:52.775Z,69.372559
2018-07-10T01:08:58.191Z,69.274902
2018-07-10T01:10:03.596Z,69.274902
2018-07-10T01:11:10.011Z,69.274902
2018-07-10T01:12:15.410Z,69.171143
2018-07-10T01:13:20.823Z,69.171143
2018-07-10T01:14:26.225Z,69.067383
2018-07-10T01:15:31.630Z,69.067383
2018-07-10T01:16:37.035Z,68.969727
2018-07-10T01:17:42.456Z,68.969727
2018-07-10T01:18:47.891Z,68.969727
2018-07-10T01:19:53.252Z,68.969727
2018-07-10T01:20:58.657Z,68.969727
2018-07-10T01:22:04.064Z,68.865967
2018-07-10T01:23:09.477Z,68.865967
2018-07-10T01:24:14.881Z,68.865967
2018-07-10T01:25:20.289Z,68.865967
2018-07-10T01:26:25.693Z,68.969727
2018-07-10T01:27:31.098Z,68.865967
2018-07-10T01:28:37.511Z,68.865967
2018-07-10T01:29:42.917Z,68.865967
2018-07-10T01:30:48.324Z,68.768311
2018-07-10T01:31:53.729Z,68.664551
2018-07-10T01:32:59.136Z,68.560791
2018-07-10T01:34:04.566Z,68.560791
2018-07-10T01:35:09.968Z,68.560791
2018-07-10T01:36:15.375Z,68.463135
2018-07-10T01:37:20.784Z,68.359375
2018-07-10T01:38:26.191Z,68.261719
2018-07-10T01:39:31.594Z,68.157959
2018-07-10T01:40:36.998Z,68.060303
2018-07-10T01:41:42.406Z,67.755127
2018-07-10T01:42:48.805Z,67.553711
2018-07-10T01:43:54.220Z,67.449951
2018-07-10T01:44:59.639Z,67.248535
2018-07-10T01:46:05.045Z,67.047119
2018-07-10T01:47:10.447Z,66.8396
2018-07-10T01:48:15.848Z,66.638184
2018-07-10T01:49:21.262Z,66.571045
2018-07-10T01:50:26.664Z,66.467285
2018-07-10T01:51:32.070Z,66.467285
2018-07-10T01:52:37.477Z,66.369629
2018-07-10T01:53:42.890Z,66.369629
2018-07-10T01:54:48.294Z,66.265869
2018-07-10T01:55:53.699Z,66.265869
2018-07-10T01:56:59.105Z,66.162109
2018-07-10T01:58:04.506Z,66.162109
2018-07-10T01:59:09.923Z,66.162109
2018-07-10T02:00:15.327Z,66.162109
2018-07-10T02:01:20.734Z,66.162109
2018-07-10T02:02:26.133Z,66.064453
2018-07-10T02:03:31.544Z,66.064453
2018-07-10T02:04:36.947Z,66.064453
2018-07-10T02:05:42.352Z,66.064453
2018-07-10T02:06:47.757Z,66.064453
2018-07-10T02:07:53.193Z,66.064453
2018-07-10T02:08:58.606Z,66.064453
2018-07-10T02:10:04.017Z,66.064453
2018-07-10T02:11:09.414Z,65.960693
2018-07-10T02:12:14.818Z,65.960693
2018-07-10T02:13:20.218Z,65.991211
2018-07-10T02:14:25.634Z,65.991211
2018-07-10T02:15:31.036Z,65.991211
2018-07-10T02:16:36.438Z,65.991211
2018-07-10T02:17:41.844Z,65.991211
2018-07-10T02:18:47.244Z,65.991211
2018-07-10T02:19:53.652Z,66.094971
2018-07-10T02:20:59.059Z,66.094971
2018-07-10T02:22:04.461Z,66.192627
2018-07-10T02:23:09.862Z,66.192627
2018-07-10T02:24:15.274Z,66.192627
2018-07-10T02:25:20.678Z,66.192627
2018-07-10T02:26:26.091Z,66.094971
2018-07-10T02:27:31.496Z,66.192627
2018-07-10T02:28:36.909Z,66.192627
2018-07-10T02:29:42.325Z,66.296387
2018-07-10T02:30:47.725Z,66.192627
2018-07-10T02:31:53.133Z,66.296387
2018-07-10T02:32:58.538Z,66.296387
2018-07-10T02:34:03.954Z,66.296387
2018-07-10T02:35:09.357Z,66.296387
2018-07-10T02:36:14.767Z,66.296387
2018-07-10T02:37:20.170Z,66.296387
2018-07-10T02:38:25.574Z,66.400146
2018-07-10T02:39:30.990Z,66.400146
2018-07-10T02:40:36.394Z,66.400146
2018-07-10T02:41:42.787Z,66.400146
2018-07-10T02:42:48.190Z,66.400146
2018-07-10T02:43:53.591Z,66.400146
2018-07-10T02:44:59.006Z,66.497803
2018-07-10T02:46:04.424Z,66.400146
2018-07-10T02:47:09.827Z,66.497803
2018-07-10T02:48:15.247Z,66.497803
2018-07-10T02:49:20.649Z,66.497803
2018-07-10T02:50:26.048Z,66.400146
2018-07-10T02:51:31.451Z,66.400146
2018-07-10T02:52:37.849Z,66.400146
2018-07-10T02:53:43.247Z,66.296387
2018-07-10T02:54:48.665Z,66.296387
2018-07-10T02:55:54.065Z,66.094971
2018-07-10T02:56:59.469Z,66.094971
2018-07-10T02:58:04.879Z,66.094971
2018-07-10T02:59:11.280Z,65.991211
2018-07-10T03:00:16.683Z,65.893555
2018-07-10T03:01:22.088Z,65.893555
2018-07-10T03:02:27.489Z,65.789795
2018-07-10T03:03:32.891Z,65.789795
2018-07-10T03:04:38.322Z,65.789795
2018-07-10T03:05:43.724Z,65.789795
2018-07-10T03:06:49.128Z,65.789795
2018-07-10T03:07:54.534Z,65.686035
2018-07-10T03:08:59.938Z,65.588379
2018-07-10T03:10:05.363Z,65.588379
2018-07-10T03:11:10.761Z,65.588379
2018-07-10T03:12:16.174Z,65.588379
2018-07-10T03:13:21.570Z,65.484619
2018-07-10T03:14:26.971Z,65.386963
2018-07-10T03:15:32.383Z,65.386963
2018-07-10T03:16:37.795Z,65.283203
2018-07-10T03:17:43.192Z,65.179443
2018-07-10T03:18:48.594Z,65.179443
2018-07-10T03:19:53.998Z,65.081787
2018-07-10T03:20:59.414Z,64.978027
2018-07-10T03:22:04.817Z,64.978027
2018-07-10T03:23:10.223Z,64.880371
2018-07-10T03:24:15.627Z,64.880371
2018-07-10T03:25:21.067Z,64.746094
2018-07-10T03:26:26.474Z,64.776611
2018-07-10T03:27:31.879Z,64.776611
2018-07-10T03:28:37.281Z,64.776611
2018-07-10T03:29:42.686Z,64.776611
2018-07-10T03:30:48.105Z,64.776611
2018-07-10T03:31:53.510Z,64.776611
2018-07-10T03:32:58.914Z,64.776611
2018-07-10T03:34:04.324Z,64.776611
2018-07-10T03:35:09.732Z,64.776611
2018-07-10T03:36:15.141Z,64.776611
2018-07-10T03:37:20.549Z,64.776611
2018-07-10T03:38:25.957Z,64.776611
2018-07-10T03:39:31.362Z,64.776611
2018-07-10T03:40:36.770Z,64.776611
2018-07-10T03:41:42.176Z,64.880371
2018-07-10T03:42:47.579Z,64.880371
2018-07-10T03:43:52.983Z,64.978027
2018-07-10T03:44:58.383Z,64.978027
2018-07-10T03:46:03.906Z,64.978027
2018-07-10T03:47:09.314Z,65.081787
2018-07-10T03:48:14.716Z,65.081787
2018-07-10T03:49:20.119Z,65.179443
2018-07-10T03:50:25.534Z,65.179443
2018-07-10T03:51:30.945Z,65.283203
2018-07-10T03:52:36.347Z,65.283203
2018-07-10T03:53:41.747Z,65.386963
2018-07-10T03:54:47.153Z,65.386963
2018-07-10T03:55:52.567Z,65.386963
2018-07-10T03:56:57.969Z,65.386963
2018-07-10T03:58:03.373Z,65.386963
2018-07-10T03:59:08.776Z,65.484619
2018-07-10T04:00:14.181Z,65.386963
2018-07-10T04:01:19.606Z,65.386963
2018-07-10T04:02:25.013Z,65.356445
2018-07-10T04:03:30.422Z,65.356445
2018-07-10T04:04:35.823Z,65.356445
2018-07-10T04:05:41.230Z,65.356445
2018-07-10T04:06:46.649Z,65.356445
2018-07-10T04:07:52.066Z,65.454102
2018-07-10T04:08:57.471Z,65.454102
2018-07-10T04:10:02.874Z,65.356445
2018-07-10T04:11:08.280Z,65.454102
2018-07-10T04:12:13.696Z,65.454102
2018-07-10T04:13:19.105Z,65.454102
2018-07-10T04:14:24.507Z,65.356445
2018-07-10T04:15:29.927Z,65.356445
2018-07-10T04:16:35.331Z,65.454102
2018-07-10T04:17:40.745Z,65.356445
2018-07-10T04:18:46.149Z,65.356445
2018-07-10T04:19:51.555Z,65.356445
2018-07-10T04:20:56.966Z,65.356445
2018-07-10T04:22:02.384Z,65.356445
2018-07-10T04:23:07.785Z,65.356445
2018-07-10T04:24:13.194Z,65.356445
2018-07-10T04:25:18.599Z,65.252686
2018-07-10T04:26:24.008Z,65.148926
2018-07-10T04:27:29.442Z,65.148926
2018-07-10T04:28:34.837Z,65.148926
2018-07-10T04:29:40.236Z,65.148926
2018-07-10T04:30:45.639Z,65.148926
2018-07-10T04:31:51.052Z,65.05127
2018-07-10T04:32:56.466Z,65.05127
2018-07-10T04:34:01.873Z,65.05127
2018-07-10T04:35:07.275Z,65.05127
2018-07-10T04:36:12.680Z,65.05127
2018-07-10T04:37:18.083Z,65.05127
2018-07-10T04:38:23.499Z,65.05127
2018-07-10T04:39:28.908Z,65.05127
2018-07-10T04:40:34.314Z,65.148926
2018-07-10T04:41:40.722Z,65.148926
2018-07-10T04:42:46.143Z,65.05127
2018-07-10T04:43:51.546Z,65.05127
2018-07-10T04:44:56.951Z,65.05127
2018-07-10T04:46:02.355Z,65.05127
2018-07-10T04:47:07.760Z,64.94751
2018-07-10T04:48:13.187Z,64.94751
2018-07-10T04:49:18.632Z,65.05127
2018-07-10T04:50:24.011Z,65.05127
2018-07-10T04:51:29.414Z,65.05127
2018-07-10T04:52:34.822Z,65.05127
2018-07-10T04:53:40.240Z,65.05127
2018-07-10T04:54:45.644Z,64.94751
2018-07-10T04:55:52.050Z,64.819336
2018-07-10T04:56:57.451Z,64.819336
2018-07-10T04:58:02.855Z,64.819336
2018-07-10T04:59:08.273Z,64.819336
2018-07-10T05:00:13.672Z,64.819336
2018-07-10T05:01:19.076Z,64.849854
2018-07-10T05:02:24.499Z,64.849854
2018-07-10T05:03:29.926Z,64.94751
2018-07-10T05:04:35.332Z,65.05127
2018-07-10T05:05:40.735Z,64.94751
2018-07-10T05:06:46.140Z,65.05127
2018-07-10T05:07:51.547Z,65.05127
2018-07-10T05:08:56.955Z,65.05127
2018-07-10T05:10:02.358Z,65.05127
2018-07-10T05:11:07.760Z,65.020752
2018-07-10T05:12:13.160Z,65.118408
2018-07-10T05:13:18.562Z,65.020752
2018-07-10T05:14:23.976Z,65.020752
2018-07-10T05:15:29.388Z,65.020752
2018-07-10T05:16:34.791Z,65.020752
2018-07-10T05:17:40.230Z,65.020752
2018-07-10T05:18:46.600Z,65.118408
2018-07-10T05:19:52.005Z,65.148926
2018-07-10T05:20:57.414Z,65.118408
2018-07-10T05:22:02.821Z,65.118408
2018-07-10T05:23:08.360Z,65.222168
2018-07-10T05:24:13.642Z,65.252686
2018-07-10T05:25:19.045Z,65.356445
2018-07-10T05:26:24.456Z,65.356445
2018-07-10T05:27:29.856Z,65.319824
2018-07-10T05:28:35.264Z,65.319824
2018-07-10T05:29:40.734Z,65.423584
2018-07-10T05:30:46.136Z,65.423584
2018-07-10T05:31:51.547Z,65.423584
2018-07-10T05:32:56.951Z,65.423584
2018-07-10T05:34:02.357Z,65.527344
2018-07-10T05:35:07.767Z,65.527344
2018-07-10T05:36:13.168Z,65.625
2018-07-10T05:37:18.731Z,65.625
2018-07-10T05:38:23.974Z,65.625
2018-07-10T05:39:29.383Z,65.625
2018-07-10T05:40:34.811Z,65.72876
2018-07-10T05:41:40.219Z,65.625
2018-07-10T05:42:45.622Z,65.594482
2018-07-10T05:43:51.023Z,65.594482
2018-07-10T05:44:56.447Z,65.594482
2018-07-10T05:46:01.896Z,65.594482
2018-07-10T05:47:07.298Z,65.594482
2018-07-10T05:48:12.707Z,65.698242
2018-07-10T05:49:18.107Z,65.698242
2018-07-10T05:50:23.522Z,65.795898
2018-07-10T05:51:28.926Z,65.795898
2018-07-10T05:52:34.332Z,65.869141
2018-07-10T05:53:39.735Z,66.003418
2018-07-10T05:54:45.140Z,66.204834
2018-07-10T05:55:50.564Z,66.271973
2018-07-10T05:56:56.960Z,66.577148
2018-07-10T05:58:02.369Z,66.912842
2018-07-10T05:59:07.776Z,67.51709
2018-07-10T06:00:13.208Z,67.822266
2018-07-10T06:01:18.612Z,68.023682
2018-07-10T06:02:24.017Z,68.634033
2018-07-10T06:03:29.419Z,68.731689
2018-07-10T06:04:34.833Z,68.939209
2018-07-10T06:05:40.234Z,69.238281
2018-07-10T06:06:45.647Z,69.238281
2018-07-10T06:07:51.050Z,69.238281
2018-07-10T06:08:56.456Z,69.476318
2018-07-10T06:10:01.856Z,69.573975
2018-07-10T06:11:07.273Z,69.87915
2018-07-10T06:12:12.677Z,69.87915
2018-07-10T06:13:18.106Z,69.98291
2018-07-10T06:14:23.510Z,70.184326
2018-07-10T06:15:29.928Z,70.288086
2018-07-10T06:16:35.344Z,70.385742
2018-07-10T06:17:40.748Z,70.489502
2018-07-10T06:18:46.148Z,70.385742
2018-07-10T06:19:51.553Z,70.587158
2018-07-10T06:20:56.966Z,70.690918
2018-07-10T06:22:02.373Z,70.892334
2018-07-10T06:23:07.777Z,71.30127
2018-07-10T06:24:13.179Z,71.801758
2018-07-10T06:25:18.581Z,72.412109
2018-07-10T06:26:23.997Z,73.156738
2018-07-10T06:27:29.409Z,73.760986
2018-07-10T06:28:34.814Z,74.676514
2018-07-10T06:29:40.225Z,75.079346
2018-07-10T06:30:46.629Z,75.488281
2018-07-10T06:31:52.037Z,75.787354
2018-07-10T06:32:57.441Z,75.891113
2018-07-10T06:34:02.844Z,76.800537
2018-07-10T06:35:08.249Z,76.904297
2018-07-10T06:36:13.661Z,76.800537
2018-07-10T06:37:19.063Z,77.105713
2018-07-10T06:38:24.468Z,77.410889
2018-07-10T06:39:29.868Z,77.44751
2018-07-10T06:40:35.274Z,77.648926
2018-07-10T06:41:40.693Z,77.44751
2018-07-10T06:42:46.094Z,77.752686
2018-07-10T06:43:52.492Z,78.155518
2018-07-10T06:44:57.920Z,78.363037
2018-07-10T06:46:04.327Z,78.869629
2018-07-10T06:47:09.735Z,79.168701
2018-07-10T06:48:15.139Z,79.473877
2018-07-10T06:49:20.541Z,79.577637
2018-07-10T06:50:25.945Z,79.815674
2018-07-10T06:51:31.358Z,80.01709
2018-07-10T06:52:36.883Z,80.322266
2018-07-10T06:53:42.237Z,80.731201
2018-07-10T06:54:47.567Z,81.335449
2018-07-10T06:55:52.970Z,81.439209
2018-07-10T06:56:58.490Z,81.439209
2018-07-10T06:58:03.933Z,81.945801
2018-07-10T06:59:09.337Z,81.988525
2018-07-10T07:00:14.736Z,82.189941
2018-07-10T07:01:21.162Z,82.391357
2018-07-10T07:02:26.565Z,82.696533
2018-07-10T07:03:31.979Z,83.001709
2018-07-10T07:04:37.387Z,83.306885
2018-07-10T07:05:42.799Z,83.404541
2018-07-10T07:06:48.214Z,83.612061
2018-07-10T07:07:53.653Z,84.014893
2018-07-10T07:08:59.041Z,84.118652
2018-07-10T07:10:04.448Z,84.320068
2018-07-10T07:11:09.854Z,84.625244
2018-07-10T07:12:15.274Z,84.82666
2018-07-10T07:13:20.692Z,85.028076
2018-07-10T07:14:26.095Z,85.235596
2018-07-10T07:15:31.498Z,85.235596
2018-07-10T07:16:36.912Z,85.235596
2018-07-10T07:17:42.324Z,85.437012
2018-07-10T07:18:47.726Z,85.131836
2018-07-10T07:19:53.129Z,85.028076
2018-07-10T07:20:58.533Z,85.235596
2018-07-10T07:22:03.949Z,85.235596
2018-07-10T07:23:09.351Z,85.437012
2018-07-10T07:24:14.760Z,85.235596
2018-07-10T07:25:20.166Z,85.333252
2018-07-10T07:26:25.570Z,85.534668
2018-07-10T07:27:30.988Z,85.534668
2018-07-10T07:28:37.382Z,85.534668
